Time;durP1;ratioP1;P1;durP2;ratioP2;P2;SDS_P1;SDS_P2;PMS_P1;PMS_P2;Temp;Humidity;BMP_temperature;BMP_pressure;BME280_temperature;BME280_humidity;BME280_pressure;Samples;Min_cycle;Max_cycle;Signal;HPM_P1;HPM_P2
2022/12/05 00:01:22;;;;;;;42.35;22.85;;;;;;;3.73;84.59;101064.84;5031700;28;20055;-67
2022/12/05 00:03:52;;;;;;;40.95;21.40;;;;;;;3.80;85.69;101068.97;5053369;28;20048;-68
2022/12/05 00:06:21;;;;;;;45.72;22.95;;;;;;;3.97;85.28;101066.94;5053952;28;20060;-69
2022/12/05 00:08:50;;;;;;;45.50;23.48;;;;;;;3.98;84.75;101073.19;5052936;28;20060;-68
2022/12/05 00:11:26;;;;;;;48.10;23.75;;;;;;;4.03;84.51;101062.31;5032578;28;20049;-68
2022/12/05 00:13:55;;;;;;;45.63;23.38;;;;;;;4.13;84.33;101062.41;5011986;28;20065;-67
2022/12/05 00:16:25;;;;;;;43.00;22.87;;;;;;;4.04;84.11;101069.44;5024351;28;20060;-68
2022/12/05 00:18:53;;;;;;;44.75;24.65;;;;;;;4.20;84.22;101071.97;5034573;28;20065;-68
2022/12/05 00:21:25;;;;;;;42.47;22.33;;;;;;;4.15;83.63;101077.41;5026701;28;20049;-69
2022/12/05 00:23:54;;;;;;;42.58;23.45;;;;;;;4.18;83.63;101073.34;5023216;28;20061;-69
2022/12/05 00:26:22;;;;;;;46.33;23.13;;;;;;;4.04;83.81;101083.06;4999796;28;20057;-68
2022/12/05 00:28:51;;;;;;;42.35;23.25;;;;;;;4.21;84.09;101070.91;5037337;28;20754;-68
2022/12/05 00:31:20;;;;;;;44.13;24.13;;;;;;;4.39;83.59;101069.66;5039876;28;20056;-68
2022/12/05 00:33:48;;;;;;;51.00;24.35;;;;;;;4.34;84.25;101075.09;5029018;28;20050;-69
2022/12/05 00:36:17;;;;;;;44.58;23.98;;;;;;;4.18;84.34;101071.44;5025642;28;20049;-68
2022/12/05 00:38:45;;;;;;;43.42;24.20;;;;;;;4.19;84.21;101089.44;5038066;28;20054;-68
2022/12/05 00:41:18;;;;;;;46.90;25.10;;;;;;;3.96;85.23;101087.06;5036115;28;20045;-69
2022/12/05 00:43:46;;;;;;;49.38;25.60;;;;;;;3.99;85.52;101091.19;5018827;28;20053;-70
2022/12/05 00:46:17;;;;;;;44.22;24.23;;;;;;;3.95;84.78;101084.63;5041690;28;20049;-68
2022/12/05 00:48:45;;;;;;;43.92;23.52;;;;;;;3.77;85.96;101079.56;5036710;28;20057;-68
2022/12/05 00:51:21;;;;;;;44.05;24.20;;;;;;;4.05;85.96;101081.97;5030498;28;20057;-68
2022/12/05 00:53:49;;;;;;;42.95;21.70;;;;;;;3.97;85.18;101082.47;5030283;28;20064;-68
2022/12/05 00:56:19;;;;;;;44.58;24.63;;;;;;;3.88;85.78;101079.41;5025150;28;20053;-69
2022/12/05 00:58:47;;;;;;;43.00;23.50;;;;;;;3.70;86.20;101078.94;5020285;28;20417;-67
2022/12/05 01:01:20;;;;;;;44.58;23.38;;;;;;;3.56;86.44;101091.38;5052385;28;20493;-68
2022/12/05 01:03:48;;;;;;;45.05;24.38;;;;;;;3.65;87.31;101092.53;5028126;28;20046;-68
2022/12/05 01:06:15;;;;;;;44.47;24.23;;;;;;;3.93;86.63;101095.78;5024572;28;20065;-67
2022/12/05 01:08:43;;;;;;;43.95;22.90;;;;;;;4.00;86.18;101092.81;5043092;28;20053;-69
2022/12/05 01:11:14;;;;;;;46.63;23.65;;;;;;;3.83;85.31;101092.97;5039039;28;20052;-68
2022/12/05 01:13:41;;;;;;;44.90;24.55;;;;;;;3.83;86.05;101097.59;5029993;28;20060;-68
2022/12/05 01:16:20;;;;;;;46.28;25.17;;;;;;;3.74;86.42;101093.69;5041911;28;20049;-68
2022/12/05 01:18:47;;;;;;;45.15;24.77;;;;;;;4.01;86.49;101108.91;5018970;28;20401;-67
2022/12/05 01:21:16;;;;;;;44.83;24.00;;;;;;;3.88;86.52;101111.25;5039901;28;20083;-68
2022/12/05 01:23:43;;;;;;;45.05;24.77;;;;;;;3.78;86.26;101113.91;5026482;28;20061;-67
2022/12/05 01:26:13;;;;;;;46.78;24.80;;;;;;;3.88;86.37;101125.72;5043375;28;20056;-68
2022/12/05 01:28:40;;;;;;;;;;;;;;;3.75;85.91;101117.97;5023458;28;20072;-67
2022/12/05 01:31:30;;;;;;;45.78;23.67;;;;;;;3.88;86.50;101119.44;5038598;28;19925;-67
2022/12/05 01:33:59;;;;;;;45.95;24.75;;;;;;;4.10;86.08;101114.69;5038072;28;20046;-67
2022/12/05 01:36:27;;;;;;;44.25;24.38;;;;;;;4.20;85.58;101122.97;5019245;28;20057;-67
2022/12/05 01:38:55;;;;;;;46.60;25.30;;;;;;;3.86;85.39;101127.03;5038835;28;20373;-68
2022/12/05 01:41:25;;;;;;;48.85;25.88;;;;;;;3.90;86.66;101129.00;5056133;28;20052;-68
2022/12/05 01:44:05;;;;;;;;;;;;;;;3.69;87.01;101138.06;5044347;28;20041;-67
2022/12/05 01:46:38;;;;;;;51.58;26.48;;;;;;;3.61;87.50;101140.44;5029043;28;19928;-68
2022/12/05 01:49:10;;;;;;;48.33;25.40;;;;;;;3.71;87.58;101149.53;5057085;28;20480;-67
2022/12/05 01:51:40;;;;;;;45.00;25.05;;;;;;;3.66;87.61;101148.66;5043680;28;20060;-68
2022/12/05 01:54:07;;;;;;;;;;;;;;;3.74;87.99;101156.34;5018955;28;20042;-68
2022/12/05 01:56:35;;;;;;;48.50;26.17;;;;;;;3.72;87.77;101163.97;5004618;28;19927;-68
2022/12/05 01:59:04;;;;;;;44.15;24.98;;;;;;;3.83;87.14;101165.72;5022286;28;20064;-68
2022/12/05 02:01:31;;;;;;;47.78;25.88;;;;;;;3.86;87.22;101176.91;5038075;28;20060;-69
2022/12/05 02:03:59;;;;;;;54.60;27.73;;;;;;;3.55;87.81;101172.25;5004472;28;20054;-68
2022/12/05 02:06:27;;;;;;;50.15;26.38;;;;;;;3.59;87.65;101170.66;5036533;28;20419;-68
2022/12/05 02:08:54;;;;;;;48.03;25.25;;;;;;;3.86;87.31;101174.19;5054743;28;20065;-68
2022/12/05 02:11:24;;;;;;;50.47;27.95;;;;;;;3.38;88.30;101169.59;5054228;28;20447;-68
2022/12/05 02:14:09;;;;;;;51.47;27.98;;;;;;;3.68;88.36;101165.59;5041013;28;20512;-69
2022/12/05 02:16:45;;;;;;;51.25;27.48;;;;;;;3.66;88.50;101165.00;5002183;28;20054;-68
2022/12/05 02:19:26;;;;;;;51.83;28.27;;;;;;;3.62;88.39;101166.59;5036016;28;20077;-68
2022/12/05 02:22:00;;;;;;;54.72;29.15;;;;;;;3.66;88.02;101151.38;5029893;28;20056;-68
2022/12/05 02:24:27;;;;;;;52.38;27.55;;;;;;;3.79;87.65;101161.84;5024131;28;20054;-68
2022/12/05 02:27:37;;;;;;;55.40;30.02;;;;;;;3.66;87.62;101160.34;5029894;28;20049;-68
2022/12/05 02:30:10;;;;;;;51.97;29.63;;;;;;;3.72;86.99;101163.97;5018514;28;20049;-68
2022/12/05 02:32:49;;;;;;;55.15;29.08;;;;;;;3.67;87.48;101159.31;5036453;28;20064;-68
2022/12/05 02:35:35;;;;;;;53.38;29.52;;;;;;;3.95;86.87;101172.66;5016900;28;20386;-68
2022/12/05 02:38:02;;;;;;;52.13;28.27;;;;;;;3.86;86.38;101163.28;5020609;28;20046;-68
2022/12/05 02:40:34;;;;;;;49.30;28.30;;;;;;;3.86;86.27;101165.19;5017456;28;20065;-68
2022/12/05 02:43:23;;;;;;;48.13;27.70;;;;;;;3.73;86.98;101165.63;5035073;28;20045;-68
2022/12/05 02:45:52;;;;;;;54.83;28.90;;;;;;;3.61;87.24;101173.94;5019445;28;20053;-68
2022/12/05 02:48:20;;;;;;;53.05;29.35;;;;;;;3.82;87.22;101161.34;5015639;28;20049;-68
2022/12/05 02:50:48;;;;;;;49.38;27.13;;;;;;;3.87;87.25;101158.69;5004607;28;20076;-68
2022/12/05 02:53:16;;;;;;;51.75;28.67;;;;;;;3.95;86.90;101163.66;5016185;28;20054;-68
2022/12/05 02:55:44;;;;;;;50.30;28.45;;;;;;;3.86;87.31;101168.75;5004794;28;20053;-68
2022/12/05 02:58:20;;;;;;;52.22;29.30;;;;;;;3.74;86.27;101164.53;5053985;28;20056;-67
2022/12/05 03:00:49;;;;;;;51.13;28.73;;;;;;;3.53;87.50;101166.22;5054925;28;20049;-68
2022/12/05 03:03:18;;;;;;;51.95;29.20;;;;;;;3.43;88.85;101166.94;5035571;28;20076;-69
2022/12/05 03:05:56;;;;;;;57.83;30.88;;;;;;;3.37;89.09;101158.97;5024317;28;20044;-67
2022/12/05 03:08:28;;;;;;;51.72;28.13;;;;;;;3.33;89.81;101161.38;4999682;28;20058;-66
2022/12/05 03:10:57;;;;;;;50.20;27.38;;;;;;;3.47;90.43;101170.78;5027811;28;20053;-68
2022/12/05 03:13:28;;;;;;;57.03;28.48;;;;;;;3.17;91.31;101173.16;4998446;28;20064;-68
2022/12/05 03:15:59;;;;;;;45.40;26.17;;;;;;;3.36;91.66;101169.03;5032743;28;20053;-67
2022/12/05 03:18:33;;;;;;;47.03;26.02;;;;;;;3.40;90.70;101172.91;5034747;28;20052;-67
2022/12/05 03:21:07;;;;;;;48.30;25.83;;;;;;;2.83;91.42;101173.53;5034413;28;20059;-67
2022/12/05 03:23:41;;;;;;;50.92;28.67;;;;;;;2.72;93.78;101172.56;5014110;28;20050;-68
2022/12/05 03:26:19;;;;;;;50.60;27.63;;;;;;;2.58;94.42;101182.13;5014855;28;20076;-68
2022/12/05 03:29:10;;;;;;;50.35;27.58;;;;;;;2.64;95.41;101183.03;5035178;28;20501;-67
2022/12/05 03:31:51;;;;;;;54.45;27.65;;;;;;;2.66;95.56;101187.19;5042911;28;20045;-67
2022/12/05 03:34:33;;;;;;;52.42;27.63;;;;;;;2.45;96.29;101193.38;5026368;28;20042;-67
2022/12/05 03:37:05;;;;;;;54.72;26.98;;;;;;;2.33;97.04;101187.22;5049626;28;20053;-67
2022/12/05 03:39:34;;;;;;;53.85;28.20;;;;;;;2.33;97.51;101184.50;5015818;28;20057;-68
2022/12/05 03:42:12;;;;;;;55.65;30.30;;;;;;;2.55;97.59;101187.25;5016155;28;20499;-67
2022/12/05 03:44:46;;;;;;;54.55;29.83;;;;;;;2.77;97.10;101186.22;5015583;28;20056;-67
2022/12/05 03:47:32;;;;;;;57.78;30.30;;;;;;;2.41;96.86;101189.50;5046093;28;20509;-67
2022/12/05 03:50:03;;;;;;;58.00;30.45;;;;;;;2.40;96.70;101197.91;5033389;28;20054;-69
2022/12/05 03:52:39;;;;;;;59.45;30.42;;;;;;;2.50;96.43;101196.16;5033782;28;20062;-68
2022/12/05 03:55:28;;;;;;;55.53;31.55;;;;;;;2.59;95.48;101202.84;5015194;28;20057;-68
2022/12/05 03:58:07;;;;;;;62.37;31.53;;;;;;;2.58;95.06;101203.09;5034823;28;20045;-68
2022/12/05 04:00:40;;;;;;;56.00;30.45;;;;;;;2.60;95.34;101209.13;5020628;28;20303;-67
2022/12/05 04:03:23;;;;;;;57.60;32.63;;;;;;;2.90;95.75;101207.63;5021018;28;20049;-75
2022/12/05 04:05:55;;;;;;;59.30;31.40;;;;;;;2.94;94.28;101214.25;5022527;28;20045;-68
2022/12/05 04:08:30;;;;;;;58.90;31.58;;;;;;;3.02;93.58;101218.41;5041405;28;20080;-67
2022/12/05 04:11:02;;;;;;;54.45;31.88;;;;;;;2.92;93.52;101216.38;5040216;28;20049;-67
2022/12/05 04:13:32;;;;;;;53.47;31.55;;;;;;;2.96;93.34;101220.25;5055728;28;20053;-67
2022/12/05 04:18:55;;;;;;;51.53;29.42;;;;;;;2.69;93.25;101215.75;5058536;28;20049;-68
2022/12/05 04:21:37;;;;;;;57.60;31.75;;;;;;;2.46;94.96;101214.03;5032576;28;20464;-68
2022/12/05 04:27:15;;;;;;;;;;;;;;;2.48;96.57;101227.38;5034657;28;20064;-68
2022/12/05 04:29:52;;;;;;;56.15;32.53;;;;;;;2.41;96.05;101222.13;5027080;28;19920;-70
2022/12/05 04:32:23;;;;;;;59.40;33.08;;;;;;;2.40;95.96;101220.50;5057789;28;20053;-67
2022/12/05 04:34:54;;;;;;;60.83;32.55;;;;;;;2.29;96.08;101222.22;5019516;28;20089;-68
2022/12/05 04:37:29;;;;;;;57.30;30.92;;;;;;;2.29;96.07;101222.22;5021605;28;20419;-68
2022/12/05 04:40:03;;;;;;;62.78;33.78;;;;;;;2.38;96.19;101228.06;5042776;28;20057;-68
2022/12/05 04:42:32;;;;;;;61.83;34.42;;;;;;;2.33;96.44;101227.16;5038708;28;20060;-68
2022/12/05 04:45:07;;;;;;;69.45;35.15;;;;;;;2.49;96.36;101224.44;5027169;28;20046;-67
2022/12/05 04:47:45;;;;;;;61.45;34.85;;;;;;;2.49;96.62;101223.59;5038758;28;20071;-69
2022/12/05 04:50:13;;;;;;;65.07;34.88;;;;;;;2.93;96.24;101225.38;5026695;28;20053;-68
2022/12/05 04:52:42;;;;;;;63.10;34.20;;;;;;;3.00;95.13;101236.91;5023349;28;20053;-68
2022/12/05 04:55:15;;;;;;;60.00;33.37;;;;;;;3.02;94.43;101240.16;5056505;28;20052;-68
2022/12/05 04:58:18;;;;;;;65.45;33.35;;;;;;;2.87;94.62;101239.97;5022809;28;20296;-68
2022/12/05 05:00:51;;;;;;;64.60;34.08;;;;;;;2.84;94.74;101244.00;5005812;28;20045;-68
2022/12/05 05:03:29;;;;;;;67.72;35.53;;;;;;;2.77;95.17;101245.25;5050778;28;20088;-68
2022/12/05 05:05:57;;;;;;;68.53;36.90;;;;;;;2.78;95.70;101244.19;5038769;28;20604;-67
2022/12/05 05:08:27;;;;;;;64.22;33.60;;;;;;;2.90;95.33;101253.88;5057298;28;20057;-67
2022/12/05 05:11:10;;;;;;;63.08;33.78;;;;;;;2.97;94.73;101251.00;5018161;28;20050;-68
2022/12/05 05:13:38;;;;;;;63.63;32.38;;;;;;;2.60;93.84;101245.25;5053296;28;20053;-66
2022/12/05 05:16:05;;;;;;;63.95;34.17;;;;;;;2.67;95.58;101245.13;5023340;28;20048;-66
2022/12/05 05:18:33;;;;;;;58.08;31.63;;;;;;;2.93;94.53;101250.66;5057683;28;20492;-68
2022/12/05 05:21:00;;;;;;;60.38;32.40;;;;;;;2.78;93.89;101253.16;5034009;28;20515;-69
2022/12/05 05:23:28;;;;;;;65.00;34.20;;;;;;;2.82;94.23;101238.00;5019048;28;20049;-68
2022/12/05 05:25:55;;;;;;;66.07;34.00;;;;;;;3.04;94.88;101251.63;5018927;28;20045;-67
2022/12/05 05:28:22;;;;;;;58.70;31.35;;;;;;;3.24;94.56;101251.94;5037291;28;20057;-68
2022/12/05 05:30:50;;;;;;;62.85;32.42;;;;;;;3.50;92.60;101250.34;5036089;28;20048;-69
2022/12/05 05:33:17;;;;;;;54.10;29.60;;;;;;;3.04;92.21;101255.19;5036001;28;20080;-69
2022/12/05 05:35:44;;;;;;;53.63;28.55;;;;;;;3.26;92.20;101249.78;5034682;28;20047;-68
2022/12/05 05:38:12;;;;;;;58.97;30.67;;;;;;;2.68;93.51;101260.34;5037281;28;20053;-69
2022/12/05 05:40:39;;;;;;;61.95;31.30;;;;;;;2.70;94.93;101258.22;5036428;28;20430;-69
2022/12/05 05:43:06;;;;;;;59.88;31.17;;;;;;;2.73;95.49;101265.88;5035140;28;20416;-69
2022/12/05 05:45:35;;;;;;;59.65;30.50;;;;;;;2.73;95.15;101268.59;5023876;28;20299;-69
2022/12/05 05:48:03;;;;;;;58.45;31.00;;;;;;;2.82;95.41;101273.38;5039306;28;20500;-69
2022/12/05 05:50:30;;;;;;;52.15;28.50;;;;;;;2.81;95.30;101277.16;5045122;28;20053;-69
2022/12/05 05:52:58;;;;;;;57.45;29.60;;;;;;;2.99;94.92;101278.78;5018397;28;20053;-69
2022/12/05 05:55:25;;;;;;;53.25;27.90;;;;;;;2.56;94.19;101278.66;5035083;28;20401;-68
2022/12/05 05:57:53;;;;;;;49.15;26.90;;;;;;;2.50;94.59;101277.72;5037151;28;20053;-68
2022/12/05 06:00:20;;;;;;;54.50;28.02;;;;;;;2.54;95.84;101283.50;5023970;28;20056;-69
2022/12/05 06:02:47;;;;;;;48.88;27.00;;;;;;;2.55;95.18;101283.25;5052543;28;20049;-69
2022/12/05 06:05:15;;;;;;;52.50;26.98;;;;;;;2.46;95.33;101281.22;5034535;28;20046;-68
2022/12/05 06:07:42;;;;;;;43.88;23.80;;;;;;;2.71;94.71;101295.19;5036971;28;20514;-69
2022/12/05 06:10:10;;;;;;;52.75;27.45;;;;;;;2.76;93.43;101292.56;5042253;28;20164;-68
2022/12/05 06:12:37;;;;;;;52.35;26.00;;;;;;;3.05;93.98;101294.13;5035625;28;20053;-68
2022/12/05 06:15:05;;;;;;;50.63;26.67;;;;;;;2.90;93.32;101300.13;5035970;28;20064;-69
2022/12/05 06:17:32;;;;;;;53.35;26.27;;;;;;;2.76;94.62;101300.72;5035996;28;20061;-67
2022/12/05 06:19:59;;;;;;;56.08;27.35;;;;;;;2.73;94.62;101301.22;5030823;28;20044;-67
2022/12/05 06:22:28;;;;;;;59.67;28.75;;;;;;;2.84;94.62;101301.13;5016659;28;20049;-68
2022/12/05 06:24:56;;;;;;;51.60;27.42;;;;;;;3.02;94.47;101308.19;5034550;28;20054;-68
2022/12/05 06:27:23;;;;;;;57.97;27.73;;;;;;;2.92;93.73;101305.31;5017736;28;20046;-68
2022/12/05 06:29:51;;;;;;;52.58;28.80;;;;;;;2.88;94.05;101304.16;5034071;28;20058;-68
2022/12/05 06:32:19;;;;;;;62.47;30.40;;;;;;;2.63;94.25;101309.22;5031872;28;20045;-67
2022/12/05 06:34:46;;;;;;;58.85;29.65;;;;;;;2.62;94.69;101311.09;5051096;28;20052;-68
2022/12/05 06:37:13;;;;;;;64.55;29.65;;;;;;;2.67;95.44;101313.91;5050632;28;20057;-69
2022/12/05 06:39:41;;;;;;;61.50;30.73;;;;;;;2.69;95.30;101321.81;5033898;28;20061;-69
2022/12/05 06:42:08;;;;;;;60.85;30.77;;;;;;;2.67;95.87;101316.63;5030322;28;20056;-68
2022/12/05 06:44:35;;;;;;;60.25;30.30;;;;;;;2.75;95.74;101324.41;5027428;28;20386;-68
2022/12/05 06:47:03;;;;;;;61.15;30.23;;;;;;;2.97;94.55;101327.16;5050598;28;20053;-67
2022/12/05 06:49:32;;;;;;;58.50;30.27;;;;;;;3.22;93.63;101330.28;5021536;28;20413;-67
2022/12/05 06:52:04;;;;;;;56.97;28.33;;;;;;;2.85;92.84;101342.75;5013714;28;20049;-67
2022/12/05 06:54:31;;;;;;;59.83;30.48;;;;;;;2.55;94.36;101334.91;5027777;28;20500;-68
2022/12/05 06:56:58;;;;;;;68.25;32.65;;;;;;;2.74;94.71;101338.22;5012190;28;20515;-68
2022/12/05 06:59:26;;;;;;;59.47;29.50;;;;;;;3.10;94.39;101335.00;5050860;28;20517;-68
2022/12/05 07:01:53;;;;;;;56.97;29.40;;;;;;;3.13;92.70;101339.94;5033256;28;20049;-69
2022/12/05 07:04:25;;;;;;;54.22;27.45;;;;;;;2.71;93.65;101346.88;5029843;28;20505;-68
2022/12/05 07:06:53;;;;;;;62.15;29.60;;;;;;;2.86;94.22;101344.44;5021669;28;20041;-67
2022/12/05 07:09:44;;;;;;;59.13;29.58;;;;;;;3.41;93.73;101348.00;5045793;28;20053;-69
2022/12/05 07:12:12;;;;;;;59.40;28.98;;;;;;;3.04;92.80;101350.44;5054495;28;20056;-69
2022/12/05 07:14:40;;;;;;;57.53;29.90;;;;;;;2.94;93.50;101360.31;5023835;28;20489;-68
2022/12/05 07:17:20;;;;;;;59.55;28.92;;;;;;;3.05;93.81;101364.88;5031792;28;20053;-67
2022/12/05 07:19:48;;;;;;;55.90;26.92;;;;;;;3.03;93.38;101370.53;5019949;28;20059;-69
2022/12/05 07:22:20;;;;;;;55.97;28.10;;;;;;;2.93;94.12;101377.72;5032574;28;20064;-68
2022/12/05 07:24:47;;;;;;;52.38;27.85;;;;;;;3.17;94.06;101363.69;5010692;28;20552;-71
2022/12/05 07:27:15;;;;;;;53.33;27.33;;;;;;;3.11;93.20;101369.31;5019806;28;20515;-71
2022/12/05 07:29:46;;;;;;;50.38;27.17;;;;;;;3.31;92.44;101364.19;5028703;28;20404;-78
2022/12/05 07:32:14;;;;;;;48.38;26.60;;;;;;;3.49;92.21;101374.78;5054056;28;20052;-77
2022/12/05 07:34:41;;;;;;;51.65;28.10;;;;;;;3.59;91.49;101374.94;5054359;28;20052;-78
2022/12/05 07:37:08;;;;;;;53.53;27.40;;;;;;;3.73;90.74;101372.66;5035050;28;20049;-68
2022/12/05 07:39:36;;;;;;;49.22;26.75;;;;;;;3.34;88.80;101385.47;5017102;28;20057;-70
2022/12/05 07:42:03;;;;;;;51.92;26.73;;;;;;;3.52;90.51;101378.91;5049823;28;20081;-68
2022/12/05 07:44:30;;;;;;;51.92;27.13;;;;;;;3.34;90.75;101383.56;5045268;28;20064;-72
2022/12/05 07:46:58;;;;;;;48.33;27.08;;;;;;;3.58;91.90;101386.88;5036313;28;20371;-72
2022/12/05 07:49:25;;;;;;;47.42;26.15;;;;;;;3.80;90.36;101390.44;4981807;28;20140;-71
2022/12/05 07:51:52;;;;;;;46.20;26.45;;;;;;;3.49;89.24;101393.03;5018710;28;20397;-68
2022/12/05 07:54:20;;;;;;;46.13;27.20;;;;;;;3.57;89.79;101387.16;5011664;28;20057;-68
2022/12/05 07:56:47;;;;;;;52.22;27.48;;;;;;;3.72;89.22;101401.81;5047237;28;20052;-73
2022/12/05 07:59:14;;;;;;;44.22;25.08;;;;;;;3.68;89.94;101389.75;5053356;28;20060;-69
2022/12/05 08:01:42;;;;;;;45.83;26.00;;;;;;;3.75;89.21;101398.56;5054566;28;20060;-68
2022/12/05 08:04:09;;;;;;;46.35;26.02;;;;;;;3.90;88.52;101400.69;5001895;28;20102;-72
2022/12/05 08:06:41;;;;;;;44.85;26.35;;;;;;;3.82;88.13;101407.38;5021112;28;20057;-72
2022/12/05 08:09:09;;;;;;;48.45;26.75;;;;;;;4.20;88.81;101414.69;5033072;28;20437;-67
2022/12/05 08:11:36;;;;;;;47.78;27.23;;;;;;;4.33;87.46;101412.41;5032334;28;20168;-68
2022/12/05 08:14:06;;;;;;;46.55;26.15;;;;;;;4.18;87.01;101417.69;5019000;28;20049;-68
2022/12/05 08:16:34;;;;;;;45.45;26.38;;;;;;;3.87;87.66;101418.34;5003762;28;20436;-67
2022/12/05 08:19:04;;;;;;;47.17;27.00;;;;;;;3.68;87.46;101427.88;5015953;28;20046;-68
2022/12/05 08:21:32;;;;;;;46.63;27.48;;;;;;;3.47;87.84;101425.13;5030114;28;20068;-68
2022/12/05 08:23:59;;;;;;;50.22;27.55;;;;;;;3.37;89.22;101428.50;5033014;28;20050;-69
2022/12/05 08:26:29;;;;;;;53.10;30.13;;;;;;;3.73;89.49;101425.22;5033377;28;20076;-67
2022/12/05 08:28:58;;;;;;;56.72;32.92;;;;;;;3.93;88.75;101430.13;5026485;28;20054;-68
2022/12/05 08:31:27;;;;;;;46.85;27.35;;;;;;;3.44;88.32;101419.09;5030829;28;20052;-73
2022/12/05 08:33:56;;;;;;;49.85;28.50;;;;;;;3.54;88.33;101432.03;5000491;28;20515;-72
2022/12/05 08:36:27;;;;;;;53.72;30.08;;;;;;;2.89;89.21;101425.53;5029618;28;20046;-72
2022/12/05 08:38:56;;;;;;;53.93;29.47;;;;;;;3.16;90.53;101431.97;4986434;28;20050;-71
2022/12/05 08:41:27;;;;;;;59.08;30.20;;;;;;;3.09;90.91;101431.31;5033190;28;20299;-72
2022/12/05 08:43:57;;;;;;;56.00;28.83;;;;;;;3.33;90.44;101432.78;5049212;28;20492;-68
2022/12/05 08:46:24;;;;;;;52.50;28.85;;;;;;;3.06;90.99;101438.09;5030677;28;20045;-72
2022/12/05 08:48:52;;;;;;;62.33;29.77;;;;;;;3.18;91.65;101436.13;5020340;28;20061;-72
2022/12/05 08:51:19;;;;;;;55.25;30.98;;;;;;;3.68;90.89;101432.53;5028665;28;20594;-72
2022/12/05 08:53:46;;;;;;;52.10;28.98;;;;;;;3.36;89.37;101430.41;5026745;28;20409;-72
2022/12/05 08:56:14;;;;;;;59.00;30.50;;;;;;;3.17;91.18;101428.19;5037660;28;20187;-72
2022/12/05 08:58:41;;;;;;;54.97;29.75;;;;;;;3.18;90.68;101435.28;5036492;28;20064;-72
2022/12/05 09:01:13;;;;;;;54.22;28.48;;;;;;;3.44;91.75;101440.06;5036078;28;20505;-72
2022/12/05 09:03:42;;;;;;;55.88;29.20;;;;;;;3.64;91.45;101437.66;5015027;28;20386;-72
2022/12/05 09:06:18;;;;;;;54.58;29.15;;;;;;;3.61;90.35;101443.59;5006630;28;20050;-72
2022/12/05 09:08:46;;;;;;;57.80;30.50;;;;;;;3.22;90.95;101450.88;5024055;28;20065;-73
2022/12/05 09:11:18;;;;;;;55.25;30.45;;;;;;;3.55;91.66;101455.50;5032891;28;20065;-72
2022/12/05 09:13:46;;;;;;;48.55;29.50;;;;;;;3.49;90.14;101458.41;5036853;28;20049;-72
2022/12/05 09:16:25;;;;;;;61.22;31.08;;;;;;;3.03;89.89;101451.38;5035618;28;20045;-73
2022/12/05 09:18:52;;;;;;;54.88;31.15;;;;;;;3.06;91.33;101456.31;4991134;28;20069;-72
2022/12/05 09:21:22;;;;;;;55.42;30.85;;;;;;;3.43;90.77;101461.00;5029606;28;20057;-73
2022/12/05 09:23:50;;;;;;;58.35;31.50;;;;;;;3.14;90.45;101469.50;4999603;28;20050;-72
2022/12/05 09:26:20;;;;;;;56.08;31.33;;;;;;;3.03;91.18;101463.06;5023746;28;20057;-72
2022/12/05 09:28:48;;;;;;;54.17;30.25;;;;;;;2.98;91.71;101464.88;5018359;28;20052;-72
2022/12/05 09:31:18;;;;;;;55.30;30.17;;;;;;;3.21;92.11;101467.44;5052050;28;20059;-73
2022/12/05 09:33:46;;;;;;;59.17;30.60;;;;;;;2.94;92.21;101467.28;5038627;28;20068;-72
2022/12/05 09:36:20;;;;;;;56.83;30.08;;;;;;;3.05;92.90;101460.13;5039565;28;20052;-72
2022/12/05 09:38:48;;;;;;;55.08;29.08;;;;;;;3.23;93.30;101468.03;5052176;28;20053;-72
2022/12/05 09:44:42;;;;;;;53.22;30.50;;;;;;;2.66;92.42;101480.88;5017909;28;20049;-71
2022/12/05 09:47:14;;;;;;;52.45;30.33;;;;;;;2.96;93.63;101486.06;5052239;28;20045;-71
2022/12/05 09:49:48;;;;;;;56.17;30.48;;;;;;;2.91;92.93;101481.34;5039005;28;20068;-73
2022/12/05 09:52:26;;;;;;;50.50;29.38;;;;;;;2.94;92.05;101482.75;5018991;28;20053;-71
2022/12/05 09:54:54;;;;;;;56.03;30.75;;;;;;;3.18;91.52;101476.94;5036818;28;20053;-71
2022/12/05 09:57:34;;;;;;;55.47;31.45;;;;;;;3.26;89.88;101494.78;5016341;28;20385;-71
2022/12/05 10:00:06;;;;;;;56.10;31.70;;;;;;;3.60;90.54;101488.25;5035433;28;20053;-72
2022/12/05 10:02:44;;;;;;;53.55;30.13;;;;;;;3.71;88.89;101487.34;5030964;28;20077;-70
2022/12/05 10:05:23;;;;;;;49.33;28.33;;;;;;;3.60;86.99;101488.25;5032426;28;20058;-71
2022/12/05 10:08:15;;;;;;;52.28;30.35;;;;;;;3.73;87.25;101498.78;5016501;28;20053;-72
2022/12/05 10:11:28;;;;;;;49.05;28.10;;;;;;;3.54;85.86;101491.94;5003661;28;20052;-72
2022/12/05 10:14:25;;;;;;;54.15;29.05;;;;;;;3.47;86.61;101493.22;5033549;28;20050;-70
2022/12/05 10:17:20;;;;;;;55.00;30.52;;;;;;;3.79;87.45;101492.34;5034310;28;20401;-71
2022/12/05 10:19:48;;;;;;;56.78;30.13;;;;;;;3.56;86.68;101497.97;5035703;28;20053;-71
2022/12/05 10:22:21;;;;;;;63.42;31.85;;;;;;;3.45;87.98;101493.47;5035523;28;20053;-71
2022/12/05 10:24:53;;;;;;;59.22;31.60;;;;;;;3.37;87.91;101502.84;5011936;28;20059;-70
2022/12/05 10:27:32;;;;;;;58.42;31.50;;;;;;;3.03;88.33;101497.63;5031026;28;20055;-71
2022/12/05 10:30:16;;;;;;;58.53;32.50;;;;;;;3.13;89.06;101503.25;5024494;28;20067;-69
2022/12/05 10:32:57;;;;;;;57.67;31.75;;;;;;;3.13;89.32;101503.25;5054700;28;20067;-68
2022/12/05 10:35:35;;;;;;;55.55;30.70;;;;;;;3.19;88.25;101497.63;5020679;28;20054;-68
2022/12/05 10:38:06;;;;;;;52.97;30.98;;;;;;;3.59;88.90;101500.22;5017577;28;20057;-68
2022/12/05 10:40:38;;;;;;;54.65;31.73;;;;;;;3.84;87.49;101499.78;5037454;28;20045;-68
2022/12/05 10:43:07;;;;;;;54.25;30.40;;;;;;;3.97;86.25;101492.09;5037374;28;20615;-70
2022/12/05 10:45:41;;;;;;;59.10;29.93;;;;;;;3.82;84.66;101500.03;5001535;28;20053;-70
2022/12/05 10:48:11;;;;;;;52.97;30.45;;;;;;;3.82;85.51;101496.50;5050635;28;20374;-72
2022/12/05 10:50:41;;;;;;;51.97;31.15;;;;;;;3.49;85.57;101507.41;5038546;28;20049;-71
2022/12/05 10:53:15;;;;;;;55.75;31.55;;;;;;;3.76;86.86;101492.03;5034287;28;20056;-71
2022/12/05 10:55:50;;;;;;;53.63;30.20;;;;;;;4.27;85.87;101499.84;5035143;28;20060;-70
2022/12/05 10:58:38;;;;;;;54.42;32.15;;;;;;;4.09;84.79;101498.25;5021040;28;20129;-72
2022/12/05 11:01:08;;;;;;;53.28;30.27;;;;;;;4.05;84.20;101499.81;5023845;28;20041;-72
2022/12/05 11:03:40;;;;;;;53.80;30.75;;;;;;;4.10;84.29;101502.63;5034074;28;20052;-71
2022/12/05 11:06:22;;;;;;;50.97;30.48;;;;;;;3.96;83.95;101498.59;5017340;28;20097;-72
2022/12/05 11:08:55;;;;;;;52.03;30.88;;;;;;;4.29;84.36;101498.50;5039764;28;20061;-70
2022/12/05 11:11:32;;;;;;;56.70;31.90;;;;;;;4.40;82.43;101504.91;5046217;28;20044;-72
2022/12/05 11:14:01;;;;;;;53.25;30.25;;;;;;;4.58;82.28;101501.88;5055683;28;20403;-71
2022/12/05 11:16:38;;;;;;;61.93;31.80;;;;;;;4.49;82.04;101503.41;5037561;28;20049;-71
2022/12/05 11:19:21;;;;;;;53.03;30.65;;;;;;;4.30;81.77;101502.06;5036276;28;20773;-68
2022/12/05 11:21:49;;;;;;;51.72;30.08;;;;;;;4.00;83.11;101505.19;5040232;28;20602;-67
2022/12/05 11:24:46;;;;;;;54.42;31.65;;;;;;;4.27;82.67;101497.94;5020563;28;20053;-69
2022/12/05 11:27:16;;;;;;;50.88;30.23;;;;;;;4.29;81.42;101503.97;5032533;28;20049;-71
2022/12/05 11:29:54;;;;;;;55.38;30.92;;;;;;;4.47;80.77;101498.19;5049760;28;20400;-71
2022/12/05 11:32:24;;;;;;;55.50;32.50;;;;;;;4.44;81.48;101500.63;5036341;28;20053;-71
2022/12/05 11:35:03;;;;;;;53.20;33.10;;;;;;;4.49;80.70;101504.22;5037615;28;20500;-71
2022/12/05 11:37:44;;;;;;;57.25;34.35;;;;;;;4.13;79.73;101495.84;5036495;28;20129;-73
2022/12/05 11:40:27;;;;;;;61.20;33.50;;;;;;;4.12;80.85;101500.47;5021789;28;20064;-69
2022/12/05 11:43:14;;;;;;;52.13;30.42;;;;;;;4.36;80.77;101501.88;5037357;28;20428;-72
2022/12/05 11:45:50;;;;;;;50.88;31.23;;;;;;;4.49;79.92;101504.22;5039795;28;20060;-71
2022/12/05 11:48:21;;;;;;;58.75;32.83;;;;;;;4.72;78.91;101499.56;5038828;28;20053;-67
2022/12/05 11:50:57;;;;;;;61.03;33.28;;;;;;;4.90;78.28;101499.25;5023533;28;20045;-67